createdAt,value
2022-08-22T00:02:51.388Z,18.37
2022-08-22T00:04:53.563Z,18.36
2022-08-22T00:24:52.912Z,18.35
2022-08-22T00:44:53.485Z,18.32
2022-08-22T01:24:53.458Z,18.28
2022-08-22T01:44:53.433Z,18.27
2022-08-22T02:04:53.418Z,18.26
2022-08-22T02:24:53.390Z,18.26
2022-08-22T02:44:53.369Z,18.24
2022-08-22T04:04:53.003Z,18.15
2022-08-22T05:44:53.224Z,18.04
2022-08-22T06:04:53.117Z,17.99
2022-08-22T06:44:53.066Z,17.96
2022-08-22T07:04:52.408Z,17.94
2022-08-22T07:24:52.996Z,17.9
2022-08-22T07:44:52.977Z,17.87
2022-08-22T08:04:52.946Z,17.86
2022-08-22T08:24:52.902Z,17.85
2022-08-22T08:44:52.877Z,17.84
2022-08-22T09:04:52.849Z,17.82
2022-08-22T09:24:52.799Z,17.79
2022-08-22T09:44:52.776Z,17.77
2022-08-22T10:04:52.746Z,17.76
2022-08-22T10:44:52.396Z,17.76
2022-08-22T11:04:52.654Z,17.75
2022-08-22T11:24:55.316Z,17.76
2022-08-22T11:44:52.594Z,17.76
2022-08-22T12:04:52.569Z,17.76
2022-08-22T12:44:52.521Z,17.78
2022-08-22T13:04:52.490Z,17.81
2022-08-22T13:24:52.800Z,17.85
2022-08-22T13:44:52.422Z,17.86
2022-08-22T14:04:52.359Z,17.87
2022-08-22T14:24:54.789Z,17.92
2022-08-22T14:44:52.327Z,17.96
2022-08-22T15:44:52.196Z,18.06
2022-08-22T17:24:52.028Z,18.24
2022-08-22T17:44:52.028Z,18.26
2022-08-22T18:04:52.318Z,18.28
2022-08-22T18:24:51.952Z,18.33
2022-08-22T18:44:51.915Z,18.36
2022-08-22T19:04:51.891Z,18.37
2022-08-22T19:24:51.848Z,18.39
2022-08-22T19:44:51.821Z,18.43
2022-08-22T20:04:51.817Z,18.45
2022-08-22T20:24:51.749Z,18.46
2022-08-22T20:44:53.541Z,18.47
2022-08-22T21:04:51.813Z,18.47
2022-08-22T21:24:51.669Z,18.47
2022-08-22T21:44:51.631Z,18.47
2022-08-22T22:04:51.578Z,18.47
2022-08-22T22:24:51.589Z,18.47
2022-08-22T22:44:51.543Z,18.47
2022-08-22T23:04:51.510Z,18.47
2022-08-22T23:24:51.472Z,18.47
2022-08-22T23:44:51.458Z,18.47
